Time;durP1;ratioP1;P1;durP2;ratioP2;P2;SDS_P1;SDS_P2;PMS_P1;PMS_P2;Temp;Humidity;BMP_temperature;BMP_pressure;BME280_temperature;BME280_humidity;BME280_pressure;Samples;Min_cycle;Max_cycle;Signal;HPM_P1;HPM_P2
2022/10/04 00:01:58;;;;;;;1.20;1.20;;;;;;;;;;4928362;28;20277;-59
2022/10/04 00:04:28;;;;;;;1.30;1.30;;;;;;;;;;4943275;28;20225;-59
2022/10/04 00:06:59;;;;;;;1.60;1.60;;;;;;;;;;4939140;28;20288;-58
2022/10/04 00:09:26;;;;;;;1.20;1.20;;;;;;;;;;4925977;28;21125;-59
2022/10/04 00:11:52;;;;;;;1.10;1.10;;;;;;;;;;4938058;28;20238;-59
2022/10/04 00:14:23;;;;;;;1.30;1.30;;;;;;;;;;4910080;28;20226;-59
2022/10/04 00:16:49;;;;;;;1.40;1.40;;;;;;;;;;4932674;28;20226;-59
2022/10/04 00:19:14;;;;;;;1.30;1.30;;;;;;;;;;4932294;28;20597;-59
2022/10/04 00:21:54;;;;;;;1.33;1.33;;;;;;;;;;4920529;28;20227;-59
2022/10/04 00:24:23;;;;;;;1.40;1.40;;;;;;;;;;4952700;28;20222;-59
2022/10/04 00:26:49;;;;;;;1.27;1.27;;;;;;;;;;4936616;28;20245;-58
2022/10/04 00:29:29;;;;;;;1.50;1.50;;;;;;;;;;4931513;28;20226;-59
2022/10/04 00:32:18;;;;;;;1.50;1.50;;;;;;;;;;4948779;28;20260;-59
2022/10/04 00:34:46;;;;;;;1.40;1.40;;;;;;;;;;4940393;28;20337;-58
2022/10/04 00:37:18;;;;;;;1.50;1.50;;;;;;;;;;4915749;28;20231;-59
2022/10/04 00:39:45;;;;;;;1.30;1.30;;;;;;;;;;4934387;28;20922;-59
2022/10/04 00:42:11;;;;;;;0.80;0.80;;;;;;;;;;4948836;28;20229;-59
2022/10/04 00:45:00;;;;;;;0.87;0.87;;;;;;;;;;4915688;28;20227;-59
2022/10/04 00:47:30;;;;;;;0.90;0.90;;;;;;;;;;4924019;28;20867;-59
2022/10/04 00:49:56;;;;;;;0.80;0.80;;;;;;;;;;4927877;28;20237;-60
2022/10/04 00:52:24;;;;;;;0.80;0.80;;;;;;;;;;4941148;28;20288;-59
2022/10/04 00:54:51;;;;;;;1.00;1.00;;;;;;;;;;4940904;28;20578;-59
2022/10/04 00:57:17;;;;;;;0.80;0.80;;;;;;;;;;4936671;28;20229;-60
2022/10/04 00:59:44;;;;;;;0.70;0.70;;;;;;;;;;4944979;28;20778;-59
2022/10/04 01:02:39;;;;;;;0.70;0.70;;;;;;;;;;4942234;28;20219;-59
2022/10/04 01:05:12;;;;;;;0.77;0.77;;;;;;;;;;4975383;23;21842;-76
2022/10/04 01:07:42;;;;;;;0.77;0.77;;;;;;;;;;4948977;23;20255;-78
2022/10/04 01:10:13;;;;;;;0.83;0.83;;;;;;;;;;4958591;28;20241;-77
2022/10/04 01:12:40;;;;;;;0.90;0.90;;;;;;;;;;4964532;28;20845;-79
2022/10/04 01:15:08;;;;;;;0.90;0.90;;;;;;;;;;4937506;28;20280;-79
2022/10/04 01:17:34;;;;;;;1.03;1.03;;;;;;;;;;4919078;28;20209;-78
2022/10/04 01:20:00;;;;;;;0.80;0.80;;;;;;;;;;4933051;28;20225;-75
2022/10/04 01:22:34;;;;;;;0.80;0.80;;;;;;;;;;4974599;28;20329;-78
2022/10/04 01:25:00;;;;;;;0.80;0.80;;;;;;;;;;4941444;28;20253;-78
2022/10/04 01:27:32;;;;;;;1.10;1.10;;;;;;;;;;4929938;28;20857;-79
2022/10/04 01:29:58;;;;;;;0.90;0.90;;;;;;;;;;4977172;28;20241;-77
2022/10/04 01:32:24;;;;;;;0.90;0.90;;;;;;;;;;4943298;28;20228;-78
2022/10/04 01:34:50;;;;;;;0.83;0.83;;;;;;;;;;4951266;28;20230;-76
2022/10/04 01:37:16;;;;;;;0.90;0.90;;;;;;;;;;4956508;28;20233;-78
2022/10/04 01:39:42;;;;;;;0.97;0.97;;;;;;;;;;4953942;28;20230;-76
2022/10/04 01:42:14;;;;;;;1.00;1.00;;;;;;;;;;4975614;28;20314;-77
2022/10/04 01:44:46;;;;;;;0.70;0.70;;;;;;;;;;4962464;28;20232;-80
2022/10/04 01:47:13;;;;;;;0.80;0.80;;;;;;;;;;4958082;28;20304;-78
2022/10/04 01:49:40;;;;;;;0.80;0.80;;;;;;;;;;4949350;28;20688;-79
2022/10/04 01:52:11;;;;;;;1.00;1.00;;;;;;;;;;4953762;28;21756;-77
2022/10/04 01:54:44;;;;;;;0.93;0.93;;;;;;;;;;4949562;28;20232;-79
2022/10/04 01:57:21;;;;;;;1.00;1.00;;;;;;;;;;4927659;28;20282;-78
2022/10/04 02:00:00;;;;;;;0.70;0.70;;;;;;;;;;4960807;28;20701;-80
2022/10/04 02:02:35;;;;;;;0.80;0.80;;;;;;;;;;4958030;28;20792;-79
2022/10/04 02:05:01;;;;;;;0.90;0.90;;;;;;;;;;4947225;28;20227;-78
2022/10/04 02:07:28;;;;;;;0.70;0.70;;;;;;;;;;4943836;28;20328;-77
2022/10/04 02:09:55;;;;;;;0.90;0.90;;;;;;;;;;4963137;28;20318;-78
2022/10/04 02:12:21;;;;;;;0.87;0.87;;;;;;;;;;4965086;28;20290;-77
2022/10/04 02:14:51;;;;;;;1.00;1.00;;;;;;;;;;4971853;28;20227;-77
2022/10/04 02:17:17;;;;;;;0.90;0.90;;;;;;;;;;4951081;28;20218;-76
2022/10/04 02:19:43;;;;;;;0.90;0.90;;;;;;;;;;4951264;28;20273;-80
2022/10/04 02:22:10;;;;;;;0.90;0.90;;;;;;;;;;4934777;28;20240;-79
2022/10/04 02:24:40;;;;;;;0.90;0.90;;;;;;;;;;4942572;28;20222;-77
2022/10/04 02:27:06;;;;;;;0.70;0.70;;;;;;;;;;4963694;28;20301;-77
2022/10/04 02:29:32;;;;;;;0.83;0.83;;;;;;;;;;4947249;28;20218;-76
2022/10/04 02:34:43;;;;;;;0.70;0.70;;;;;;;;;;4963356;28;20238;-79
2022/10/04 02:37:09;;;;;;;0.90;0.90;;;;;;;;;;4946884;28;20229;-78
2022/10/04 02:39:47;;;;;;;0.80;0.80;;;;;;;;;;4948619;28;20228;-80
2022/10/04 02:42:32;;;;;;;0.80;0.80;;;;;;;;;;4958975;28;20828;-79
2022/10/04 02:45:21;;;;;;;1.00;1.00;;;;;;;;;;4962481;28;20249;-76
2022/10/04 02:47:49;;;;;;;0.90;0.90;;;;;;;;;;4945405;28;20597;-75
2022/10/04 02:50:34;;;;;;;0.90;0.90;;;;;;;;;;4967543;28;20211;-77
2022/10/04 02:53:19;;;;;;;0.80;0.80;;;;;;;;;;4962298;28;20229;-77
2022/10/04 02:55:46;;;;;;;0.90;0.90;;;;;;;;;;4940451;28;20310;-79
2022/10/04 02:58:12;;;;;;;0.70;0.70;;;;;;;;;;4934227;28;20236;-78
2022/10/04 03:00:49;;;;;;;1.03;1.03;;;;;;;;;;4949385;28;23055;-78
2022/10/04 03:03:22;;;;;;;0.70;0.70;;;;;;;;;;4932997;28;20246;-75
2022/10/04 03:05:53;;;;;;;0.90;0.90;;;;;;;;;;4956717;28;20244;-77
2022/10/04 03:08:19;;;;;;;0.70;0.70;;;;;;;;;;4948407;28;20231;-75
2022/10/04 03:10:45;;;;;;;0.83;0.83;;;;;;;;;;4956222;28;20233;-80
2022/10/04 03:13:11;;;;;;;0.70;0.70;;;;;;;;;;4916752;28;20247;-77
2022/10/04 03:15:37;;;;;;;0.90;0.90;;;;;;;;;;4941955;28;20728;-77
2022/10/04 03:18:03;;;;;;;0.90;0.90;;;;;;;;;;4931334;28;20222;-79
2022/10/04 03:20:29;;;;;;;0.87;0.87;;;;;;;;;;4961514;28;20321;-79
2022/10/04 03:22:55;;;;;;;0.80;0.80;;;;;;;;;;4960479;28;20221;-78
2022/10/04 03:25:22;;;;;;;0.70;0.70;;;;;;;;;;4930572;28;20671;-77
2022/10/04 03:27:48;;;;;;;0.60;0.60;;;;;;;;;;4965715;28;21268;-79
2022/10/04 03:30:22;;;;;;;1.60;1.60;;;;;;;;;;4953874;28;20597;-79
2022/10/04 03:32:48;;;;;;;1.13;1.13;;;;;;;;;;4945957;28;20227;-77
2022/10/04 03:35:33;;;;;;;1.30;1.30;;;;;;;;;;4949320;28;20232;-79
2022/10/04 03:38:00;;;;;;;1.50;1.50;;;;;;;;;;4941549;28;20218;-78
2022/10/04 03:40:27;;;;;;;1.10;1.10;;;;;;;;;;4917142;28;20817;-78
2022/10/04 03:42:53;;;;;;;1.10;1.10;;;;;;;;;;4955365;28;20611;-78
2022/10/04 03:45:27;;;;;;;1.30;1.30;;;;;;;;;;4963882;28;20380;-79
2022/10/04 03:47:53;;;;;;;1.40;1.40;;;;;;;;;;4952676;28;21156;-77
2022/10/04 03:50:19;;;;;;;1.20;1.20;;;;;;;;;;4959499;28;20217;-78
2022/10/04 03:52:49;;;;;;;1.40;1.40;;;;;;;;;;4965405;28;20898;-79
2022/10/04 03:55:15;;;;;;;1.30;1.30;;;;;;;;;;4958149;28;20234;-78
2022/10/04 03:57:41;;;;;;;1.40;1.40;;;;;;;;;;4943969;28;20238;-78
2022/10/04 04:00:07;;;;;;;2.10;2.00;;;;;;;;;;4966269;28;20218;-78
2022/10/04 04:02:35;;;;;;;1.53;1.53;;;;;;;;;;4948262;28;20766;-78
2022/10/04 04:05:24;;;;;;;0.90;0.90;;;;;;;;;;4947026;28;20245;-78
2022/10/04 04:08:02;;;;;;;1.00;1.00;;;;;;;;;;4955732;28;20253;-77
2022/10/04 04:10:33;;;;;;;1.30;1.30;;;;;;;;;;4942168;28;20273;-76
2022/10/04 04:13:00;;;;;;;1.10;1.10;;;;;;;;;;4942643;28;20220;-78
2022/10/04 04:15:30;;;;;;;0.90;0.90;;;;;;;;;;4956186;28;20242;-78
2022/10/04 04:17:56;;;;;;;1.10;1.10;;;;;;;;;;4978430;28;20226;-79
2022/10/04 04:20:24;;;;;;;1.00;1.00;;;;;;;;;;4938148;28;20863;-77
2022/10/04 04:22:54;;;;;;;1.17;1.17;;;;;;;;;;4964428;28;20214;-79
2022/10/04 04:25:22;;;;;;;1.00;1.00;;;;;;;;;;4951035;28;20302;-77
2022/10/04 04:27:55;;;;;;;1.00;1.00;;;;;;;;;;4952929;28;20230;-80
2022/10/04 04:30:21;;;;;;;1.13;1.13;;;;;;;;;;4960803;28;20276;-77
2022/10/04 04:32:49;;;;;;;1.10;1.10;;;;;;;;;;4962642;28;20225;-79
2022/10/04 04:35:20;;;;;;;1.20;1.20;;;;;;;;;;4946583;28;20223;-79
2022/10/04 04:37:54;;;;;;;1.10;1.10;;;;;;;;;;4952985;28;21110;-76
2022/10/04 04:40:20;;;;;;;1.07;1.07;;;;;;;;;;4964538;28;20613;-78
2022/10/04 04:42:46;;;;;;;1.00;1.00;;;;;;;;;;4957681;28;20236;-79
2022/10/04 04:45:13;;;;;;;1.10;1.10;;;;;;;;;;4951356;28;20226;-79
2022/10/04 04:47:43;;;;;;;1.00;1.00;;;;;;;;;;4949489;28;21928;-78
2022/10/04 04:50:15;;;;;;;1.00;1.00;;;;;;;;;;4949784;28;20215;-76
2022/10/04 04:52:42;;;;;;;1.10;1.10;;;;;;;;;;4961115;28;20297;-77
2022/10/04 04:55:15;;;;;;;1.00;1.00;;;;;;;;;;4959941;28;20626;-77
2022/10/04 04:57:41;;;;;;;1.10;1.10;;;;;;;;;;4972483;28;20225;-77
2022/10/04 05:00:07;;;;;;;1.00;1.00;;;;;;;;;;4956984;28;20227;-77
2022/10/04 05:02:34;;;;;;;1.10;1.10;;;;;;;;;;4953882;28;20214;-77
2022/10/04 05:05:14;;;;;;;1.00;1.00;;;;;;;;;;4968629;28;20728;-77
2022/10/04 05:07:42;;;;;;;1.73;1.70;;;;;;;;;;4951450;28;20244;-75
2022/10/04 05:10:26;;;;;;;1.90;1.80;;;;;;;;;;4952468;28;20218;-75
2022/10/04 05:12:52;;;;;;;1.80;1.70;;;;;;;;;;4956953;28;20319;-77
2022/10/04 05:15:18;;;;;;;2.10;2.00;;;;;;;;;;4930856;28;20301;-78
2022/10/04 05:17:47;;;;;;;1.90;1.80;;;;;;;;;;4954151;28;20249;-78
2022/10/04 05:20:13;;;;;;;1.97;1.87;;;;;;;;;;4943986;28;20626;-77
2022/10/04 05:22:43;;;;;;;1.90;1.80;;;;;;;;;;4929334;28;20231;-76
2022/10/04 05:25:41;;;;;;;2.00;1.90;;;;;;;;;;4931402;28;20310;-73
2022/10/04 05:28:09;;;;;;;1.90;1.80;;;;;;;;;;4904861;28;20241;-78
2022/10/04 05:30:52;;;;;;;1.80;1.70;;;;;;;;;;4944768;28;20242;-75
2022/10/04 05:33:21;;;;;;;2.40;2.30;;;;;;;;;;4940616;28;20237;-78
2022/10/04 05:35:54;;;;;;;2.40;2.30;;;;;;;;;;4947614;28;20217;-76
2022/10/04 05:38:36;;;;;;;2.20;2.10;;;;;;;;;;4940355;28;20242;-80
2022/10/04 05:41:08;;;;;;;2.70;2.60;;;;;;;;;;4958892;28;20818;-77
2022/10/04 05:43:34;;;;;;;2.00;1.90;;;;;;;;;;4939755;28;20247;-78
2022/10/04 05:46:09;;;;;;;2.00;1.90;;;;;;;;;;4960382;28;20226;-78
2022/10/04 05:48:35;;;;;;;2.07;1.97;;;;;;;;;;4968776;28;20236;-77
2022/10/04 05:51:01;;;;;;;1.60;1.60;;;;;;;;;;4940997;28;20239;-76
2022/10/04 05:53:34;;;;;;;1.53;1.53;;;;;;;;;;4936570;28;20357;-78
2022/10/04 05:56:10;;;;;;;1.73;1.70;;;;;;;;;;4943362;28;20716;-78
2022/10/04 05:58:43;;;;;;;1.67;1.67;;;;;;;;;;4964760;28;20747;-78
2022/10/04 06:01:32;;;;;;;1.50;1.50;;;;;;;;;;4951590;28;20257;-80
2022/10/04 06:04:04;;;;;;;2.00;1.90;;;;;;;;;;4932071;28;20242;-79
2022/10/04 06:06:39;;;;;;;1.60;1.60;;;;;;;;;;4967307;28;20245;-78
2022/10/04 06:09:05;;;;;;;1.50;1.50;;;;;;;;;;4966106;28;20257;-80
2022/10/04 06:11:40;;;;;;;2.07;1.97;;;;;;;;;;4945782;28;20670;-80
2022/10/04 06:14:15;;;;;;;1.60;1.60;;;;;;;;;;4962010;28;20217;-78
2022/10/04 06:17:00;;;;;;;1.70;1.70;;;;;;;;;;4992450;28;20682;-77
2022/10/04 06:19:26;;;;;;;1.70;1.70;;;;;;;;;;4946545;28;20225;-78
2022/10/04 06:21:58;;;;;;;1.60;1.60;;;;;;;;;;4961143;28;20207;-80
2022/10/04 06:24:27;;;;;;;1.50;1.50;;;;;;;;;;4956658;28;20223;-79
2022/10/04 06:26:54;;;;;;;1.53;1.53;;;;;;;;;;4952139;28;20253;-78
2022/10/04 06:29:21;;;;;;;1.60;1.60;;;;;;;;;;4943515;28;20267;-80
2022/10/04 06:31:52;;;;;;;1.60;1.60;;;;;;;;;;4964864;28;20320;-78
2022/10/04 06:34:18;;;;;;;1.70;1.70;;;;;;;;;;4978556;28;20236;-78
2022/10/04 06:36:56;;;;;;;1.50;1.50;;;;;;;;;;4971240;28;20223;-80
2022/10/04 06:39:25;;;;;;;1.90;1.80;;;;;;;;;;4968508;28;20224;-77
2022/10/04 06:41:55;;;;;;;1.90;1.80;;;;;;;;;;4957438;28;20231;-79
2022/10/04 06:44:56;;;;;;;1.50;1.50;;;;;;;;;;4955022;28;21292;-79
2022/10/04 06:47:29;;;;;;;1.40;1.40;;;;;;;;;;4900723;28;20375;-79
2022/10/04 06:50:06;;;;;;;1.63;1.63;;;;;;;;;;4915764;28;20235;-77
2022/10/04 06:52:39;;;;;;;1.77;1.73;;;;;;;;;;4916595;28;20365;-79
2022/10/04 06:55:41;;;;;;;1.63;1.63;;;;;;;;;;4926921;28;20242;-78
2022/10/04 06:58:18;;;;;;;1.60;1.60;;;;;;;;;;4906514;28;20685;-78
2022/10/04 07:00:51;;;;;;;1.93;1.83;;;;;;;;;;4963425;28;20245;-78
2022/10/04 07:03:22;;;;;;;1.80;1.70;;;;;;;;;;4953025;28;20225;-75
2022/10/04 07:06:10;;;;;;;1.70;1.70;;;;;;;;;;4940184;28;20223;-79
2022/10/04 07:08:46;;;;;;;1.40;1.40;;;;;;;;;;4970814;28;20310;-79
2022/10/04 07:11:12;;;;;;;1.67;1.67;;;;;;;;;;4945627;28;20225;-77
2022/10/04 07:13:39;;;;;;;1.90;1.80;;;;;;;;;;4983628;28;20221;-78
2022/10/04 07:16:12;;;;;;;1.50;1.50;;;;;;;;;;4975120;28;20259;-77
2022/10/04 07:18:55;;;;;;;2.00;1.90;;;;;;;;;;5027765;28;20585;-77
2022/10/04 07:21:25;;;;;;;1.57;1.57;;;;;;;;;;5034413;28;20220;-76
2022/10/04 07:23:50;;;;;;;1.87;1.77;;;;;;;;;;5008691;28;20227;-77
2022/10/04 07:26:20;;;;;;;1.60;1.60;;;;;;;;;;4973782;28;20307;-79
2022/10/04 07:31:34;;;;;;;1.80;1.70;;;;;;;;;;4965295;28;20234;-80
2022/10/04 07:34:01;;;;;;;1.50;1.50;;;;;;;;;;4948112;28;20259;-76
2022/10/04 07:36:31;;;;;;;1.40;1.40;;;;;;;;;;4950445;28;20230;-75
2022/10/04 07:39:10;;;;;;;1.30;1.30;;;;;;;;;;4963649;28;20210;-78
2022/10/04 07:41:37;;;;;;;1.30;1.30;;;;;;;;;;4961979;28;20229;-78
2022/10/04 07:44:14;;;;;;;1.30;1.30;;;;;;;;;;4968273;28;20221;-76
2022/10/04 07:46:49;;;;;;;1.40;1.40;;;;;;;;;;4958014;28;20231;-77
2022/10/04 07:49:19;;;;;;;1.40;1.40;;;;;;;;;;4953035;28;20587;-79
2022/10/04 07:51:50;;;;;;;1.37;1.37;;;;;;;;;;4947807;28;20237;-80
2022/10/04 07:54:21;;;;;;;1.30;1.30;;;;;;;;;;4950722;28;20291;-77
2022/10/04 07:56:55;;;;;;;1.10;1.10;;;;;;;;;;4966383;28;20231;-78
2022/10/04 07:59:37;;;;;;;1.30;1.30;;;;;;;;;;4936491;28;20223;-74
2022/10/04 08:02:12;;;;;;;1.10;1.10;;;;;;;;;;4945615;28;20232;-77
2022/10/04 08:04:41;;;;;;;1.10;1.10;;;;;;;;;;4946625;28;20237;-75
2022/10/04 08:07:14;;;;;;;1.37;1.37;;;;;;;;;;4922543;28;20708;-79
2022/10/04 08:10:10;;;;;;;1.00;1.00;;;;;;;;;;4958292;28;20228;-79
2022/10/04 08:12:36;;;;;;;1.30;1.30;;;;;;;;;;4968915;28;20702;-74
2022/10/04 08:15:14;;;;;;;1.30;1.30;;;;;;;;;;4968533;28;20285;-75
2022/10/04 08:17:48;;;;;;;1.37;1.37;;;;;;;;;;4973058;28;20252;-78
2022/10/04 08:20:34;;;;;;;1.23;1.23;;;;;;;;;;4958239;28;20219;-75
2022/10/04 08:23:16;;;;;;;1.20;1.20;;;;;;;;;;4959658;28;20215;-77
2022/10/04 08:25:46;;;;;;;1.10;1.10;;;;;;;;;;4955982;28;20258;-74
2022/10/04 08:31:03;;;;;;;1.30;1.30;;;;;;;;;;4963141;28;20224;-76
2022/10/04 08:33:39;;;;;;;1.20;1.20;;;;;;;;;;4985280;28;20213;-73
2022/10/04 08:36:11;;;;;;;1.40;1.40;;;;;;;;;;4943265;28;20282;-82
2022/10/04 08:38:41;;;;;;;1.20;1.20;;;;;;;;;;4957775;28;20297;-77
2022/10/04 08:41:07;;;;;;;1.27;1.27;;;;;;;;;;4955307;28;20217;-79
2022/10/04 08:43:58;;;;;;;1.20;1.20;;;;;;;;;;4953807;28;20355;-83
2022/10/04 08:46:30;;;;;;;1.30;1.30;;;;;;;;;;4969323;28;20224;-77
2022/10/04 08:49:06;;;;;;;1.10;1.10;;;;;;;;;;4971474;28;20314;-77
2022/10/04 08:51:40;;;;;;;1.00;1.00;;;;;;;;;;4960627;28;20254;-77
2022/10/04 08:54:18;;;;;;;1.50;1.50;;;;;;;;;;4957024;28;20217;-76
2022/10/04 08:56:50;;;;;;;1.40;1.40;;;;;;;;;;4966680;28;20228;-75
2022/10/04 08:59:34;;;;;;;1.80;1.70;;;;;;;;;;4958097;28;20231;-77
2022/10/04 09:02:13;;;;;;;1.20;1.20;;;;;;;;;;4952766;28;20242;-80
2022/10/04 09:04:55;;;;;;;0.90;0.90;;;;;;;;;;4977236;28;20249;-80
2022/10/04 09:07:34;;;;;;;0.90;0.90;;;;;;;;;;4984433;28;20256;-79
2022/10/04 09:10:13;;;;;;;0.90;0.90;;;;;;;;;;4959280;28;20222;-75
2022/10/04 09:12:49;;;;;;;0.90;0.90;;;;;;;;;;4941528;28;20234;-78
2022/10/04 09:15:22;;;;;;;1.00;1.00;;;;;;;;;;4947852;28;20215;-74
2022/10/04 09:18:06;;;;;;;1.37;1.37;;;;;;;;;;4958453;28;20227;-78
2022/10/04 09:20:51;;;;;;;1.30;1.30;;;;;;;;;;4974222;28;20219;-80
2022/10/04 09:23:24;;;;;;;1.20;1.20;;;;;;;;;;4972039;28;20217;-77
2022/10/04 09:25:53;;;;;;;1.20;1.20;;;;;;;;;;4988635;28;20650;-77
2022/10/04 09:28:53;;;;;;;1.10;1.10;;;;;;;;;;4976232;28;20219;-78
2022/10/04 09:31:19;;;;;;;0.90;0.90;;;;;;;;;;4969697;28;20229;-78
2022/10/04 09:33:51;;;;;;;1.30;1.30;;;;;;;;;;4982827;28;20224;-80
2022/10/04 09:36:32;;;;;;;0.80;0.80;;;;;;;;;;4964535;28;20226;-82
2022/10/04 09:39:03;;;;;;;0.80;0.80;;;;;;;;;;4956938;28;20230;-78
2022/10/04 09:41:51;;;;;;;0.80;0.80;;;;;;;;;;4980733;28;20221;-80
2022/10/04 09:44:26;;;;;;;1.20;1.20;;;;;;;;;;4980079;28;20223;-82
2022/10/04 09:47:36;;;;;;;0.80;0.80;;;;;;;;;;4984218;28;20275;-77
2022/10/04 09:50:04;;;;;;;0.90;0.90;;;;;;;;;;4938874;28;20211;-82
2022/10/04 09:52:52;;;;;;;1.10;1.10;;;;;;;;;;4976000;28;20233;-81
2022/10/04 09:55:39;;;;;;;1.00;1.00;;;;;;;;;;4930108;28;20208;-82
2022/10/04 09:58:06;;;;;;;1.20;1.20;;;;;;;;;;4987324;28;20213;-82
2022/10/04 10:00:37;;;;;;;0.77;0.77;;;;;;;;;;4980005;28;20218;-78
2022/10/04 10:03:22;;;;;;;0.90;0.90;;;;;;;;;;4956873;28;20222;-82
2022/10/04 10:05:54;;;;;;;0.70;0.70;;;;;;;;;;4980209;28;20244;-81
2022/10/04 10:08:39;;;;;;;0.70;0.70;;;;;;;;;;4978648;28;20234;-84
2022/10/04 10:14:09;;;;;;;0.70;0.70;;;;;;;;;;4978883;28;20244;-85
2022/10/04 10:16:39;;;;;;;0.70;0.70;;;;;;;;;;4966495;28;20265;-83
2022/10/04 10:19:17;;;;;;;1.10;1.10;;;;;;;;;;4989027;28;20230;-79
2022/10/04 10:22:02;;;;;;;1.00;1.00;;;;;;;;;;4973347;28;20223;-82
2022/10/04 10:24:38;;;;;;;0.70;0.70;;;;;;;;;;4991402;28;20236;-80
2022/10/04 10:27:23;;;;;;;0.70;0.70;;;;;;;;;;4964372;28;20293;-84
2022/10/04 10:29:49;;;;;;;1.10;1.10;;;;;;;;;;4977240;28;20213;-83
2022/10/04 10:32:39;;;;;;;0.90;0.90;;;;;;;;;;4977076;28;20229;-80
2022/10/04 10:35:08;;;;;;;0.93;0.93;;;;;;;;;;4976561;28;20242;-82
2022/10/04 10:37:40;;;;;;;0.90;0.90;;;;;;;;;;4966139;28;20634;-81
2022/10/04 10:40:19;;;;;;;1.00;1.00;;;;;;;;;;4977252;28;20213;-85
2022/10/04 10:43:08;;;;;;;0.90;0.90;;;;;;;;;;4970850;28;20257;-84
2022/10/04 10:45:37;;;;;;;1.00;1.00;;;;;;;;;;4947910;28;20236;-84
2022/10/04 10:48:19;;;;;;;0.60;0.60;;;;;;;;;;4975889;28;20220;-81
2022/10/04 10:50:57;;;;;;;0.90;0.90;;;;;;;;;;4978362;28;20297;-86
2022/10/04 10:53:44;;;;;;;0.93;0.93;;;;;;;;;;4974346;28;20223;-82
2022/10/04 10:56:36;;;;;;;0.60;0.60;;;;;;;;;;4973528;28;20291;-84
2022/10/04 10:59:10;;;;;;;0.70;0.70;;;;;;;;;;4960569;28;20278;-86
2022/10/04 11:01:45;;;;;;;1.00;1.00;;;;;;;;;;4966694;28;20245;-84
2022/10/04 11:04:15;;;;;;;1.00;1.00;;;;;;;;;;4973930;28;20287;-85
2022/10/04 11:06:56;;;;;;;1.00;1.00;;;;;;;;;;4941252;28;20242;-85
2022/10/04 11:09:26;;;;;;;1.00;1.00;;;;;;;;;;4960946;28;20207;-86
2022/10/04 11:12:04;;;;;;;1.00;1.00;;;;;;;;;;4957808;28;20211;-82
2022/10/04 11:14:50;;;;;;;1.00;1.00;;;;;;;;;;4969658;28;20228;-82
2022/10/04 11:17:24;;;;;;;1.00;1.00;;;;;;;;;;4969691;28;20232;-83
2022/10/04 11:20:10;;;;;;;1.00;1.00;;;;;;;;;;4971889;28;20304;-82
2022/10/04 11:22:57;;;;;;;1.00;1.00;;;;;;;;;;4966415;28;20219;-83
2022/10/04 11:25:45;;;;;;;1.00;1.00;;;;;;;;;;4962597;28;20210;-82
2022/10/04 11:28:17;;;;;;;0.90;0.90;;;;;;;;;;4961238;28;20326;-82
2022/10/04 11:31:00;;;;;;;0.85;0.85;;;;;;;;;;4958427;28;20669;-82
2022/10/04 11:33:32;;;;;;;1.02;1.02;;;;;;;;;;4972298;28;20280;-81
2022/10/04 11:36:16;;;;;;;0.90;0.90;;;;;;;;;;4959780;28;20236;-84
2022/10/04 11:39:09;;;;;;;0.82;0.82;;;;;;;;;;4950593;28;20906;-84
2022/10/04 11:41:51;;;;;;;0.80;0.80;;;;;;;;;;4954591;28;20234;-82
2022/10/04 11:44:36;;;;;;;0.90;0.90;;;;;;;;;;4973996;28;20259;-82
2022/10/04 11:47:08;;;;;;;0.80;0.80;;;;;;;;;;4980493;28;20401;-83
2022/10/04 11:49:51;;;;;;;0.60;0.60;;;;;;;;;;4966656;28;20225;-84
2022/10/04 11:52:40;;;;;;;0.68;0.68;;;;;;;;;;4974730;28;20286;-83
2022/10/04 11:55:25;;;;;;;0.93;0.93;;;;;;;;;;4933905;28;20648;-82
2022/10/04 11:58:16;;;;;;;1.00;1.00;;;;;;;;;;4956038;28;20637;-83
2022/10/04 12:00:46;;;;;;;0.80;0.80;;;;;;;;;;4956963;28;20274;-83
2022/10/04 12:03:31;;;;;;;0.90;0.90;;;;;;;;;;4974428;28;20217;-82
2022/10/04 12:06:02;;;;;;;0.80;0.80;;;;;;;;;;4976378;28;20254;-83
2022/10/04 12:08:32;;;;;;;0.75;0.75;;;;;;;;;;4960721;28;20298;-81
2022/10/04 12:11:08;;;;;;;0.80;0.80;;;;;;;;;;4957052;28;20230;-83
2022/10/04 12:13:46;;;;;;;1.00;1.00;;;;;;;;;;4991795;23;20248;-59
2022/10/04 12:16:12;;;;;;;0.98;0.98;;;;;;;;;;4969858;23;20621;-61
2022/10/04 12:18:54;;;;;;;1.00;1.00;;;;;;;;;;4978172;28;20238;-61
2022/10/04 12:21:39;;;;;;;0.90;0.90;;;;;;;;;;4966057;28;20681;-60
2022/10/04 12:24:34;;;;;;;0.80;0.80;;;;;;;;;;4964893;28;20213;-60
2022/10/04 12:27:03;;;;;;;0.80;0.80;;;;;;;;;;4965166;28;20244;-60
2022/10/04 12:29:48;;;;;;;0.70;0.70;;;;;;;;;;4983498;28;20683;-59
2022/10/04 12:32:17;;;;;;;0.60;0.60;;;;;;;;;;4995812;28;20596;-60
2022/10/04 12:35:02;;;;;;;0.80;0.80;;;;;;;;;;4991904;28;20221;-60
2022/10/04 12:37:33;;;;;;;0.90;0.90;;;;;;;;;;4978439;28;20221;-60
2022/10/04 12:39:59;;;;;;;1.00;1.00;;;;;;;;;;4960337;28;20211;-60
2022/10/04 12:42:33;;;;;;;0.90;0.90;;;;;;;;;;4974465;28;20679;-59
2022/10/04 12:45:15;;;;;;;1.00;1.00;;;;;;;;;;4970315;28;20215;-61
2022/10/04 12:47:51;;;;;;;1.10;1.10;;;;;;;;;;4978362;28;20228;-60
2022/10/04 12:50:32;;;;;;;1.10;1.10;;;;;;;;;;4979622;28;20312;-60
2022/10/04 12:53:04;;;;;;;1.10;1.10;;;;;;;;;;4993383;28;20257;-60
2022/10/04 12:55:51;;;;;;;1.25;1.25;;;;;;;;;;4977227;28;20218;-59
2022/10/04 12:58:28;;;;;;;1.10;1.10;;;;;;;;;;4979934;28;20235;-59
2022/10/04 13:00:54;;;;;;;1.10;1.10;;;;;;;;;;4944811;28;20292;-59
2022/10/04 13:03:29;;;;;;;1.20;1.20;;;;;;;;;;4957836;28;20225;-59
2022/10/04 13:06:01;;;;;;;1.10;1.10;;;;;;;;;;4978096;28;20222;-59
2022/10/04 13:08:30;;;;;;;1.20;1.20;;;;;;;;;;4973665;28;20679;-59
2022/10/04 13:11:09;;;;;;;1.10;1.10;;;;;;;;;;4959934;28;20235;-59
2022/10/04 13:13:40;;;;;;;1.20;1.20;;;;;;;;;;4962469;28;20226;-58
2022/10/04 13:16:08;;;;;;;1.20;1.20;;;;;;;;;;4961223;28;20716;-60
2022/10/04 13:18:39;;;;;;;1.13;1.13;;;;;;;;;;4971068;28;20252;-59
2022/10/04 13:21:07;;;;;;;1.10;1.10;;;;;;;;;;4932653;28;20717;-59
2022/10/04 13:23:51;;;;;;;1.10;1.10;;;;;;;;;;4978042;28;20694;-57
2022/10/04 13:26:28;;;;;;;1.00;1.00;;;;;;;;;;4945274;28;20213;-59
2022/10/04 13:29:12;;;;;;;1.00;1.00;;;;;;;;;;4930290;28;20761;-58
2022/10/04 13:31:40;;;;;;;1.10;1.10;;;;;;;;;;4943738;28;20215;-58
2022/10/04 13:34:20;;;;;;;1.10;1.10;;;;;;;;;;4964078;28;20476;-57
2022/10/04 13:36:46;;;;;;;1.00;1.00;;;;;;;;;;4938572;28;20309;-59
2022/10/04 13:39:21;;;;;;;1.10;1.10;;;;;;;;;;4956504;28;20769;-58
2022/10/04 13:41:47;;;;;;;0.90;0.90;;;;;;;;;;4939166;28;22521;-58
2022/10/04 13:44:17;;;;;;;0.75;0.75;;;;;;;;;;4968428;28;20306;-58
2022/10/04 13:46:59;;;;;;;0.90;0.90;;;;;;;;;;4977846;28;20219;-58
2022/10/04 13:49:26;;;;;;;0.80;0.80;;;;;;;;;;4964965;28;20580;-57
2022/10/04 13:57:50;;;;;;;0.80;0.80;;;;;;;;;;4906842;28;20230;-58
2022/10/04 14:00:20;;;;;;;0.80;0.80;;;;;;;;;;4982376;28;20854;-59
2022/10/04 14:02:49;;;;;;;0.80;0.80;;;;;;;;;;4978501;28;20534;-58
2022/10/04 14:05:27;;;;;;;0.70;0.70;;;;;;;;;;4944016;28;20247;-59
2022/10/04 14:07:59;;;;;;;0.88;0.88;;;;;;;;;;4956375;28;20234;-58
2022/10/04 14:10:44;;;;;;;1.00;1.00;;;;;;;;;;4975800;28;20217;-58
2022/10/04 14:13:29;;;;;;;1.10;1.10;;;;;;;;;;4949485;28;20216;-59
2022/10/04 14:16:00;;;;;;;1.00;1.00;;;;;;;;;;4958367;28;20249;-63
2022/10/04 14:18:29;;;;;;;1.10;1.10;;;;;;;;;;4965936;28;20223;-56
2022/10/04 14:21:06;;;;;;;1.00;1.00;;;;;;;;;;4965139;28;20682;-58
2022/10/04 14:23:34;;;;;;;1.00;1.00;;;;;;;;;;4961786;28;20690;-56
2022/10/04 14:26:07;;;;;;;1.00;1.00;;;;;;;;;;4950942;28;20298;-56
2022/10/04 14:28:37;;;;;;;0.95;0.95;;;;;;;;;;4962955;28;20266;-57
2022/10/04 14:31:21;;;;;;;1.00;1.00;;;;;;;;;;4975364;28;20238;-59
2022/10/04 14:33:59;;;;;;;1.08;1.08;;;;;;;;;;4955018;28;20303;-58
2022/10/04 14:36:31;;;;;;;1.10;1.10;;;;;;;;;;4965548;28;20782;-59
2022/10/04 14:39:16;;;;;;;1.20;1.20;;;;;;;;;;4945565;28;20220;-61
2022/10/04 14:41:56;;;;;;;1.00;1.00;;;;;;;;;;4963758;28;20213;-56
2022/10/04 14:44:44;;;;;;;1.20;1.20;;;;;;;;;;4930322;28;20237;-61
2022/10/04 14:47:14;;;;;;;1.10;1.10;;;;;;;;;;4971945;28;20987;-60
2022/10/04 14:49:52;;;;;;;1.20;1.20;;;;;;;;;;4967895;28;20214;-58
2022/10/04 14:52:31;;;;;;;1.00;1.00;;;;;;;;;;4968418;28;20579;-59
2022/10/04 14:55:17;;;;;;;1.00;1.00;;;;;;;;;;4956661;28;20613;-56
2022/10/04 14:57:50;;;;;;;1.10;1.10;;;;;;;;;;4915473;28;20322;-58
2022/10/04 15:00:19;;;;;;;1.20;1.20;;;;;;;;;;4938524;28;20242;-58
2022/10/04 15:03:14;;;;;;;1.10;1.10;;;;;;;;;;4964976;28;20270;-58
2022/10/04 15:05:43;;;;;;;1.17;1.17;;;;;;;;;;4959648;28;23352;-58
2022/10/04 15:08:15;;;;;;;1.40;1.40;;;;;;;;;;4972857;28;20214;-59
2022/10/04 15:11:00;;;;;;;1.20;1.20;;;;;;;;;;4975719;28;20358;-59
2022/10/04 15:13:35;;;;;;;1.10;1.10;;;;;;;;;;4949599;28;20741;-59
2022/10/04 15:16:17;;;;;;;1.10;1.10;;;;;;;;;;4960480;28;20341;-59
2022/10/04 15:18:56;;;;;;;1.23;1.23;;;;;;;;;;4953624;28;20218;-58
2022/10/04 15:21:34;;;;;;;1.20;1.20;;;;;;;;;;4970978;28;20317;-57
2022/10/04 15:24:15;;;;;;;1.10;1.10;;;;;;;;;;4956028;28;20226;-56
2022/10/04 15:26:55;;;;;;;1.20;1.20;;;;;;;;;;4956943;28;20240;-60
2022/10/04 15:29:41;;;;;;;1.30;1.30;;;;;;;;;;4955060;28;20461;-56
2022/10/04 15:32:23;;;;;;;1.00;1.00;;;;;;;;;;4934828;28;20226;-57
2022/10/04 15:35:08;;;;;;;1.10;1.10;;;;;;;;;;4979120;28;20896;-57
2022/10/04 15:37:43;;;;;;;1.10;1.10;;;;;;;;;;4942490;28;20291;-58
2022/10/04 15:40:09;;;;;;;1.10;1.10;;;;;;;;;;4991587;28;20231;-57
2022/10/04 15:42:36;;;;;;;1.20;1.20;;;;;;;;;;4963888;28;20246;-57